Time;durP1;ratioP1;P1;durP2;ratioP2;P2;SDS_P1;SDS_P2;PMS_P1;PMS_P2;Temp;Humidity;BMP_temperature;BMP_pressure;BME280_temperature;BME280_humidity;BME280_pressure;Samples;Min_cycle;Max_cycle;Signal;HPM_P1;HPM_P2
2024/02/25 00:01:17;;;;;;;14.83;8.07;;;;;;;;;;5953876;24;20061;-73
2024/02/25 00:03:43;;;;;;;17.47;8.63;;;;;;;;;;5978916;24;20012;-72
2024/02/25 00:06:09;;;;;;;16.73;8.00;;;;;;;;;;5955042;24;20032;-73
2024/02/25 00:08:35;;;;;;;17.70;9.07;;;;;;;;;;5955111;24;20071;-72
2024/02/25 00:11:01;;;;;;;14.33;8.00;;;;;;;;;;5980559;24;20004;-74
2024/02/25 00:13:27;;;;;;;15.33;8.33;;;;;;;;;;5955408;24;20092;-74
2024/02/25 00:15:53;;;;;;;18.20;8.43;;;;;;;;;;5980446;24;20473;-73
2024/02/25 00:18:18;;;;;;;20.53;9.57;;;;;;;;;;5955186;24;20426;-73
2024/02/25 00:20:44;;;;;;;18.30;9.30;;;;;;;;;;5954990;24;20057;-74
2024/02/25 00:23:09;;;;;;;15.23;7.87;;;;;;;;;;5955379;24;20134;-73
2024/02/25 00:25:38;;;;;;;18.33;9.50;;;;;;;;;;5955727;24;20016;-73
2024/02/25 00:28:04;;;;;;;23.00;10.83;;;;;;;;;;5955544;24;20004;-73
2024/02/25 00:30:30;;;;;;;18.27;9.83;;;;;;;;;;5955297;24;20450;-73
2024/02/25 00:32:55;;;;;;;19.10;10.67;;;;;;;;;;5955061;24;20012;-71
2024/02/25 00:35:21;;;;;;;19.43;9.57;;;;;;;;;;5955605;24;20406;-73
2024/02/25 00:37:47;;;;;;;21.83;10.23;;;;;;;;;;5954810;24;20004;-72
2024/02/25 00:40:13;;;;;;;17.97;9.90;;;;;;;;;;5979930;24;20019;-73
2024/02/25 00:42:39;;;;;;;20.17;10.47;;;;;;;;;;5954824;24;20068;-73
2024/02/25 00:45:05;;;;;;;15.87;9.17;;;;;;;;;;5980089;24;20016;-73
2024/02/25 00:47:31;;;;;;;18.33;10.23;;;;;;;;;;5955042;24;20383;-73
2024/02/25 00:49:56;;;;;;;20.23;10.90;;;;;;;;;;5955047;24;20015;-72
2024/02/25 00:52:24;;;;;;;19.83;9.60;;;;;;;;;;5954912;24;20024;-72
2024/02/25 00:54:53;;;;;;;24.83;10.13;;;;;;;;;;5956167;24;20072;-73
2024/02/25 00:57:18;;;;;;;16.57;10.10;;;;;;;;;;5956177;24;20012;-73
2024/02/25 00:59:43;;;;;;;18.90;10.73;;;;;;;;;;5981818;24;20008;-73
2024/02/25 01:02:09;;;;;;;19.20;10.30;;;;;;;;;;5954783;24;20012;-73
2024/02/25 01:04:36;;;;;;;22.10;12.10;;;;;;;;;;5954852;24;20012;-73
2024/02/25 01:07:02;;;;;;;23.90;11.13;;;;;;;;;;5954881;24;20008;-72
2024/02/25 01:09:27;;;;;;;22.03;9.57;;;;;;;;;;5955096;24;20145;-73
2024/02/25 01:11:53;;;;;;;21.67;10.50;;;;;;;;;;5955410;24;20004;-73
2024/02/25 01:14:20;;;;;;;19.27;9.43;;;;;;;;;;5955073;24;20643;-72
2024/02/25 01:16:47;;;;;;;17.03;9.50;;;;;;;;;;5979689;24;20014;-72
2024/02/25 01:19:13;;;;;;;21.33;10.23;;;;;;;;;;5954821;24;20018;-72
2024/02/25 01:21:39;;;;;;;18.67;8.77;;;;;;;;;;5954739;24;20088;-72
2024/02/25 01:24:05;;;;;;;19.97;9.47;;;;;;;;;;5979810;24;20422;-74
2024/02/25 01:26:31;;;;;;;16.47;8.90;;;;;;;;;;5979908;24;20008;-73
2024/02/25 01:28:57;;;;;;;17.83;9.53;;;;;;;;;;5954418;24;20417;-72
2024/02/25 01:31:23;;;;;;;21.07;9.00;;;;;;;;;;5954748;24;20001;-75
2024/02/25 01:33:48;;;;;;;19.30;10.07;;;;;;;;;;5979804;24;20008;-71
2024/02/25 01:36:14;;;;;;;20.87;9.77;;;;;;;;;;5955181;24;20431;-71
2024/02/25 01:38:39;;;;;;;16.67;8.83;;;;;;;;;;5979439;24;20249;-72
2024/02/25 01:41:05;;;;;;;19.87;10.07;;;;;;;;;;5954580;24;20556;-73
2024/02/25 01:43:30;;;;;;;21.70;9.77;;;;;;;;;;5955277;24;20012;-73
2024/02/25 01:45:56;;;;;;;27.63;10.90;;;;;;;;;;5954950;24;20457;-72
2024/02/25 01:48:23;;;;;;;21.13;10.87;;;;;;;;;;5955222;24;20060;-73
2024/02/25 01:50:49;;;;;;;23.67;10.90;;;;;;;;;;5954760;24;20008;-73
2024/02/25 01:53:16;;;;;;;21.53;11.00;;;;;;;;;;5954229;23;20024;-72
2024/02/25 01:55:45;;;;;;;21.77;11.30;;;;;;;;;;5979470;24;20100;-75
2024/02/25 01:58:12;;;;;;;24.23;10.23;;;;;;;;;;5979272;24;20335;-72
2024/02/25 02:00:39;;;;;;;23.03;10.77;;;;;;;;;;5954380;24;20015;-74
2024/02/25 02:03:05;;;;;;;23.80;10.63;;;;;;;;;;5954614;24;20012;-73
2024/02/25 02:05:30;;;;;;;23.73;11.57;;;;;;;;;;5954804;24;20012;-74
2024/02/25 02:07:56;;;;;;;22.20;10.43;;;;;;;;;;5979439;24;20349;-73
2024/02/25 02:10:22;;;;;;;23.23;10.77;;;;;;;;;;5931675;24;20018;-74
2024/02/25 02:12:48;;;;;;;21.30;10.53;;;;;;;;;;5954675;24;20099;-73
2024/02/25 02:15:15;;;;;;;22.83;10.30;;;;;;;;;;5979704;24;20019;-75
2024/02/25 02:17:42;;;;;;;20.23;11.07;;;;;;;;;;5954664;24;20023;-73
2024/02/25 02:20:12;;;;;;;21.60;11.73;;;;;;;;;;5979716;24;20011;-72
2024/02/25 02:22:39;;;;;;;24.47;10.43;;;;;;;;;;5979471;24;20004;-73
2024/02/25 02:25:05;;;;;;;26.97;11.10;;;;;;;;;;5954748;24;20015;-73
2024/02/25 02:27:30;;;;;;;21.57;10.60;;;;;;;;;;5955045;24;20887;-73
2024/02/25 02:29:56;;;;;;;18.07;9.50;;;;;;;;;;5980564;24;20008;-74
2024/02/25 02:32:21;;;;;;;20.50;10.70;;;;;;;;;;5955665;24;20004;-71
2024/02/25 02:34:47;;;;;;;20.57;9.87;;;;;;;;;;5979652;24;20037;-72
2024/02/25 02:37:12;;;;;;;19.20;9.97;;;;;;;;;;5955649;24;20007;-74
2024/02/25 02:39:38;;;;;;;20.97;10.07;;;;;;;;;;5956046;24;20110;-74
2024/02/25 02:42:05;;;;;;;20.40;10.10;;;;;;;;;;5954354;24;20004;-72
2024/02/25 02:44:31;;;;;;;19.40;9.87;;;;;;;;;;5954491;24;20008;-75
2024/02/25 02:46:58;;;;;;;17.17;9.57;;;;;;;;;;5979393;24;20083;-72
2024/02/25 02:49:23;;;;;;;15.77;9.27;;;;;;;;;;5954093;23;20008;-72
2024/02/25 02:51:50;;;;;;;20.73;10.43;;;;;;;;;;5978907;23;20028;-73
2024/02/25 02:54:15;;;;;;;16.93;10.23;;;;;;;;;;5954336;24;20008;-74
2024/02/25 02:56:41;;;;;;;19.23;10.03;;;;;;;;;;5978857;24;20047;-71
2024/02/25 02:59:06;;;;;;;20.13;10.93;;;;;;;;;;5979101;24;20043;-72
2024/02/25 03:01:32;;;;;;;18.70;9.87;;;;;;;;;;5953903;24;20016;-72
2024/02/25 03:03:57;;;;;;;21.97;10.97;;;;;;;;;;5954118;24;20338;-72
2024/02/25 03:06:23;;;;;;;18.23;9.83;;;;;;;;;;5978947;24;20012;-75
2024/02/25 03:08:50;;;;;;;17.77;9.37;;;;;;;;;;5954023;24;20151;-74
2024/02/25 03:11:15;;;;;;;20.13;10.20;;;;;;;;;;5979297;24;20000;-73
2024/02/25 03:13:43;;;;;;;17.70;10.00;;;;;;;;;;5979040;24;20075;-73
2024/02/25 03:16:08;;;;;;;19.77;10.83;;;;;;;;;;5954174;24;20071;-73
2024/02/25 03:18:34;;;;;;;20.60;10.97;;;;;;;;;;5978795;24;20423;-72
2024/02/25 03:20:59;;;;;;;20.77;10.80;;;;;;;;;;5953883;24;20054;-72
2024/02/25 03:23:25;;;;;;;21.90;10.73;;;;;;;;;;5954100;24;20012;-72
2024/02/25 03:25:51;;;;;;;20.77;10.40;;;;;;;;;;5978906;24;20012;-72
2024/02/25 03:28:17;;;;;;;19.67;11.20;;;;;;;;;;5953808;24;20414;-75
2024/02/25 03:30:42;;;;;;;20.90;11.07;;;;;;;;;;5953581;24;20327;-70
2024/02/25 03:33:08;;;;;;;23.40;11.33;;;;;;;;;;5953884;24;20008;-72
2024/02/25 03:35:33;;;;;;;18.03;10.10;;;;;;;;;;5978995;24;20008;-73
2024/02/25 03:38:00;;;;;;;19.20;10.13;;;;;;;;;;5954641;24;20019;-72
2024/02/25 03:40:26;;;;;;;19.57;10.87;;;;;;;;;;5954556;24;20041;-72
2024/02/25 03:42:51;;;;;;;21.87;12.17;;;;;;;;;;5980470;24;20062;-72
2024/02/25 03:45:17;;;;;;;21.73;10.87;;;;;;;;;;5980417;24;20484;-73
2024/02/25 03:47:43;;;;;;;17.13;10.43;;;;;;;;;;5955386;24;20045;-73
2024/02/25 03:50:12;;;;;;;20.30;10.87;;;;;;;;;;5980293;23;20447;-72
2024/02/25 03:52:41;;;;;;;26.67;11.33;;;;;;;;;;5980422;23;20062;-73
2024/02/25 03:55:07;;;;;;;24.60;11.77;;;;;;;;;;5955108;24;20015;-73
2024/02/25 03:57:33;;;;;;;27.57;12.73;;;;;;;;;;5955703;24;20070;-72
2024/02/25 03:59:59;;;;;;;21.27;11.53;;;;;;;;;;5981385;24;20026;-73
2024/02/25 04:02:25;;;;;;;20.73;10.73;;;;;;;;;;5963999;24;20444;-71
2024/02/25 04:04:51;;;;;;;22.80;11.33;;;;;;;;;;5964826;24;20037;-73
2024/02/25 04:07:17;;;;;;;24.30;12.27;;;;;;;;;;5960891;24;20507;-72
2024/02/25 04:09:43;;;;;;;25.87;12.80;;;;;;;;;;5981928;24;20016;-72
2024/02/25 04:12:08;;;;;;;33.13;14.43;;;;;;;;;;5982142;24;20527;-72
2024/02/25 04:14:34;;;;;;;41.47;17.27;;;;;;;;;;5970464;24;20008;-71
2024/02/25 04:17:00;;;;;;;52.27;20.10;;;;;;;;;;5971807;24;20068;-71
2024/02/25 04:19:26;;;;;;;53.53;20.23;;;;;;;;;;5993839;24;20005;-71
2024/02/25 04:21:51;;;;;;;44.13;18.17;;;;;;;;;;5975302;24;20016;-71
2024/02/25 04:24:17;;;;;;;39.50;15.33;;;;;;;;;;5970802;24;20015;-70
2024/02/25 04:26:47;;;;;;;31.40;13.77;;;;;;;;;;5959857;24;20008;-72
2024/02/25 04:29:13;;;;;;;27.73;13.53;;;;;;;;;;5961351;24;20076;-74
2024/02/25 04:31:40;;;;;;;26.97;12.97;;;;;;;;;;5956498;24;20031;-71
2024/02/25 04:34:06;;;;;;;27.40;12.47;;;;;;;;;;5955167;24;20019;-72
2024/02/25 04:36:31;;;;;;;24.27;12.43;;;;;;;;;;5955151;24;20016;-72
2024/02/25 04:38:57;;;;;;;22.87;12.67;;;;;;;;;;5980076;24;20088;-72
2024/02/25 04:41:23;;;;;;;24.50;12.57;;;;;;;;;;5980398;24;20462;-72
2024/02/25 04:43:48;;;;;;;18.90;11.47;;;;;;;;;;5955792;24;20012;-72
2024/02/25 04:46:14;;;;;;;24.70;11.73;;;;;;;;;;5980006;24;20486;-72
2024/02/25 04:48:39;;;;;;;22.20;10.40;;;;;;;;;;5954966;24;20016;-72
2024/02/25 04:51:05;;;;;;;16.80;10.53;;;;;;;;;;5953944;23;20367;-72
2024/02/25 04:53:30;;;;;;;20.87;10.93;;;;;;;;;;5979961;24;20008;-72
2024/02/25 04:55:56;;;;;;;24.80;10.27;;;;;;;;;;5980073;24;20008;-74
2024/02/25 04:58:22;;;;;;;20.37;11.20;;;;;;;;;;5954926;24;20035;-71
2024/02/25 05:00:48;;;;;;;22.23;11.47;;;;;;;;;;5979687;24;20019;-70
2024/02/25 05:03:14;;;;;;;16.90;9.57;;;;;;;;;;5955299;24;20009;-72
2024/02/25 05:05:40;;;;;;;18.33;9.60;;;;;;;;;;5979338;24;20087;-72
2024/02/25 05:08:06;;;;;;;19.60;10.33;;;;;;;;;;5954868;24;20375;-73
2024/02/25 05:10:31;;;;;;;20.13;9.87;;;;;;;;;;5979794;24;20004;-72
2024/02/25 05:12:57;;;;;;;24.53;10.90;;;;;;;;;;5979373;24;20063;-74
2024/02/25 05:15:22;;;;;;;18.53;10.87;;;;;;;;;;5954701;24;20409;-72
2024/02/25 05:17:48;;;;;;;16.27;9.33;;;;;;;;;;5954762;24;20015;-72
2024/02/25 05:20:14;;;;;;;19.70;9.10;;;;;;;;;;5954631;24;20027;-72
2024/02/25 05:22:39;;;;;;;16.90;9.03;;;;;;;;;;5954843;24;20450;-73
2024/02/25 05:25:05;;;;;;;19.43;9.63;;;;;;;;;;5955184;24;20011;-72
2024/02/25 05:27:36;;;;;;;25.27;10.13;;;;;;;;;;5979949;24;20035;-73
2024/02/25 05:30:05;;;;;;;23.25;10.50;;;;;;;;;;5979315;24;20338;-74
2024/02/25 05:32:31;;;;;;;17.23;9.83;;;;;;;;;;5955134;24;20012;-72
2024/02/25 05:34:56;;;;;;;18.23;10.33;;;;;;;;;;5979601;24;20015;-74
2024/02/25 05:37:22;;;;;;;18.17;9.57;;;;;;;;;;5955177;24;20039;-71
2024/02/25 05:39:52;;;;;;;16.90;9.43;;;;;;;;;;5979863;24;20003;-73
2024/02/25 05:42:18;;;;;;;16.67;9.80;;;;;;;;;;5979265;24;20478;-72
2024/02/25 05:44:44;;;;;;;17.53;9.87;;;;;;;;;;5955154;24;20012;-71
2024/02/25 05:47:10;;;;;;;21.40;10.00;;;;;;;;;;5954344;24;20051;-72
2024/02/25 05:49:37;;;;;;;20.47;9.83;;;;;;;;;;5979795;23;20015;-74
2024/02/25 05:52:03;;;;;;;22.53;10.93;;;;;;;;;;5954287;23;20020;-74
2024/02/25 05:54:29;;;;;;;18.63;9.90;;;;;;;;;;5955996;24;20408;-72
2024/02/25 05:56:55;;;;;;;21.30;10.40;;;;;;;;;;5956262;24;20020;-72
2024/02/25 05:59:21;;;;;;;22.30;11.40;;;;;;;;;;5955354;24;20008;-73
2024/02/25 06:01:47;;;;;;;21.17;9.90;;;;;;;;;;5954403;24;20008;-72
2024/02/25 06:04:13;;;;;;;21.13;10.73;;;;;;;;;;5978599;24;20012;-73
2024/02/25 06:06:39;;;;;;;19.90;10.17;;;;;;;;;;5954697;24;20168;-73
2024/02/25 06:09:06;;;;;;;19.60;10.37;;;;;;;;;;5954375;24;20490;-72
2024/02/25 06:11:31;;;;;;;19.87;10.90;;;;;;;;;;5953975;24;20060;-72
2024/02/25 06:13:57;;;;;;;24.50;10.13;;;;;;;;;;5978869;24;20008;-73
2024/02/25 06:16:24;;;;;;;21.47;10.90;;;;;;;;;;5954949;24;20064;-72
2024/02/25 06:18:49;;;;;;;18.70;10.23;;;;;;;;;;5954436;24;20023;-72
2024/02/25 06:21:14;;;;;;;19.00;10.07;;;;;;;;;;5978514;24;20051;-73
2024/02/25 06:23:40;;;;;;;19.10;9.47;;;;;;;;;;5979274;24;20016;-73
2024/02/25 06:26:06;;;;;;;19.93;10.27;;;;;;;;;;5979549;24;20014;-72
2024/02/25 06:28:32;;;;;;;20.67;10.73;;;;;;;;;;5955137;24;20096;-73
2024/02/25 06:30:58;;;;;;;17.80;9.07;;;;;;;;;;5953875;24;20059;-73
2024/02/25 06:33:23;;;;;;;17.77;9.70;;;;;;;;;;5954446;24;20011;-74
2024/02/25 06:35:50;;;;;;;18.43;8.97;;;;;;;;;;5953805;24;20036;-72
2024/02/25 06:38:15;;;;;;;17.73;9.27;;;;;;;;;;5953729;24;20350;-73
2024/02/25 06:40:41;;;;;;;18.30;9.93;;;;;;;;;;5978849;24;20456;-72
2024/02/25 06:43:09;;;;;;;21.30;9.23;;;;;;;;;;5953737;24;20008;-72
2024/02/25 06:45:35;;;;;;;21.57;9.53;;;;;;;;;;5954450;24;20008;-72
2024/02/25 06:48:01;;;;;;;20.27;10.03;;;;;;;;;;5979075;24;20033;-74
2024/02/25 06:50:28;;;;;;;18.93;9.53;;;;;;;;;;5980065;23;20004;-72
2024/02/25 06:52:53;;;;;;;23.80;12.10;;;;;;;;;;5978947;23;20087;-71
2024/02/25 06:55:19;;;;;;;22.53;11.07;;;;;;;;;;5978972;24;20042;-72
2024/02/25 06:57:44;;;;;;;20.77;10.50;;;;;;;;;;5954182;24;20004;-73
2024/02/25 07:00:11;;;;;;;19.47;10.63;;;;;;;;;;5954063;24;20080;-73
2024/02/25 07:02:36;;;;;;;20.13;10.80;;;;;;;;;;5953474;24;20018;-74
2024/02/25 07:05:03;;;;;;;23.17;10.43;;;;;;;;;;5953088;24;20008;-73
2024/02/25 07:07:29;;;;;;;23.33;10.30;;;;;;;;;;5953445;24;20039;-73
2024/02/25 07:09:57;;;;;;;20.20;10.43;;;;;;;;;;5978589;24;20188;-73
2024/02/25 07:12:25;;;;;;;19.53;9.67;;;;;;;;;;5978332;24;20497;-74
2024/02/25 07:14:51;;;;;;;19.00;9.50;;;;;;;;;;5979852;24;20015;-72
2024/02/25 07:17:16;;;;;;;18.97;10.47;;;;;;;;;;5955245;24;20020;-74
2024/02/25 07:19:46;;;;;;;21.27;10.17;;;;;;;;;;5980417;24;20601;-73
2024/02/25 07:22:12;;;;;;;16.87;9.83;;;;;;;;;;5979867;24;20011;-73
2024/02/25 07:24:39;;;;;;;23.10;11.00;;;;;;;;;;5980127;24;20084;-73
2024/02/25 07:27:06;;;;;;;25.03;10.20;;;;;;;;;;5954997;24;20461;-74
2024/02/25 07:29:31;;;;;;;26.33;11.10;;;;;;;;;;5980238;24;20031;-74
2024/02/25 07:31:57;;;;;;;19.23;9.40;;;;;;;;;;5979839;24;20419;-71
2024/02/25 07:34:23;;;;;;;17.37;9.67;;;;;;;;;;5955086;24;20110;-74
2024/02/25 07:36:49;;;;;;;16.50;8.33;;;;;;;;;;5954992;24;20441;-73
2024/02/25 07:39:14;;;;;;;20.33;9.87;;;;;;;;;;5955248;24;20012;-73
2024/02/25 07:41:40;;;;;;;17.57;9.30;;;;;;;;;;5980118;24;20008;-74
2024/02/25 07:44:06;;;;;;;18.43;9.23;;;;;;;;;;5955179;24;20079;-74
2024/02/25 07:46:31;;;;;;;17.83;9.50;;;;;;;;;;5954969;24;20103;-74
2024/02/25 07:48:58;;;;;;;19.13;10.10;;;;;;;;;;5954987;24;20012;-75
2024/02/25 07:51:24;;;;;;;18.73;9.50;;;;;;;;;;5979594;23;20020;-73
2024/02/25 07:53:50;;;;;;;16.57;8.77;;;;;;;;;;5954970;24;20345;-71
2024/02/25 07:56:20;;;;;;;18.73;8.93;;;;;;;;;;5955207;24;20371;-74
2024/02/25 07:58:46;;;;;;;17.83;8.43;;;;;;;;;;5955033;24;20279;-74
2024/02/25 08:01:12;;;;;;;14.03;8.50;;;;;;;;;;5980001;24;20060;-73
2024/02/25 08:03:37;;;;;;;17.07;8.50;;;;;;;;;;5955235;24;20463;-73
2024/02/25 08:06:03;;;;;;;15.53;8.60;;;;;;;;;;5954943;24;20506;-73
2024/02/25 08:08:29;;;;;;;16.80;8.07;;;;;;;;;;5955968;24;20004;-74
2024/02/25 08:10:54;;;;;;;15.93;8.10;;;;;;;;;;5956518;24;20016;-75
2024/02/25 08:13:20;;;;;;;14.40;7.80;;;;;;;;;;5980577;24;20012;-74
2024/02/25 08:15:45;;;;;;;12.73;6.80;;;;;;;;;;5981137;24;20004;-74
2024/02/25 08:18:11;;;;;;;17.20;8.30;;;;;;;;;;5979443;24;20008;-74
2024/02/25 08:20:36;;;;;;;14.10;7.67;;;;;;;;;;5954682;24;20016;-73
2024/02/25 08:23:02;;;;;;;17.97;8.13;;;;;;;;;;5954192;24;20423;-72
2024/02/25 08:25:27;;;;;;;16.90;8.70;;;;;;;;;;5954751;24;20086;-73
2024/02/25 08:27:53;;;;;;;14.93;7.32;;;;;;;;;;5979356;24;20362;-75
2024/02/25 08:30:20;;;;;;;15.90;7.53;;;;;;;;;;5954632;24;20015;-73
2024/02/25 08:32:46;;;;;;;13.07;7.40;;;;;;;;;;5955025;24;20004;-74
2024/02/25 08:35:11;;;;;;;18.27;8.70;;;;;;;;;;5954572;24;20460;-74
2024/02/25 08:37:39;;;;;;;14.07;7.87;;;;;;;;;;5954628;24;20095;-76
2024/02/25 08:40:05;;;;;;;15.27;7.93;;;;;;;;;;5954544;24;20320;-75
2024/02/25 08:42:31;;;;;;;15.23;8.30;;;;;;;;;;5954479;24;20338;-73
2024/02/25 08:44:57;;;;;;;16.02;8.82;;;;;;;;;;5954968;24;20008;-72
2024/02/25 08:47:23;;;;;;;14.43;7.82;;;;;;;;;;5954170;24;20008;-74
2024/02/25 08:49:49;;;;;;;19.52;7.88;;;;;;;;;;5979664;23;20083;-71
2024/02/25 08:52:16;;;;;;;14.82;7.65;;;;;;;;;;5979291;23;20335;-74
2024/02/25 08:54:43;;;;;;;15.50;8.30;;;;;;;;;;5979533;24;20008;-73
2024/02/25 08:57:09;;;;;;;19.88;8.38;;;;;;;;;;5954414;24;20016;-73
2024/02/25 08:59:35;;;;;;;17.00;8.88;;;;;;;;;;5954662;24;20016;-73
2024/02/25 09:02:01;;;;;;;15.98;8.30;;;;;;;;;;5979915;24;20083;-75
2024/02/25 09:04:30;;;;;;;13.23;7.85;;;;;;;;;;5979292;24;20000;-75
2024/02/25 09:06:59;;;;;;;13.98;8.15;;;;;;;;;;5979555;24;20021;-74
2024/02/25 09:09:25;;;;;;;10.73;6.68;;;;;;;;;;5979037;24;20008;-74
2024/02/25 09:11:52;;;;;;;17.45;8.77;;;;;;;;;;5954401;24;20307;-73
2024/02/25 09:14:17;;;;;;;17.25;8.60;;;;;;;;;;5954235;24;20012;-69
2024/02/25 09:16:43;;;;;;;17.50;8.48;;;;;;;;;;5954500;24;20012;-70
2024/02/25 09:19:09;;;;;;;13.40;8.18;;;;;;;;;;5978814;24;20462;-71
2024/02/25 09:21:35;;;;;;;14.27;7.95;;;;;;;;;;5954190;24;20090;-70
2024/02/25 09:24:02;;;;;;;13.82;7.50;;;;;;;;;;5979288;24;20004;-70
2024/02/25 09:26:27;;;;;;;16.67;9.38;;;;;;;;;;5954244;24;20016;-71
2024/02/25 09:28:53;;;;;;;24.50;12.63;;;;;;;;;;5979176;24;20000;-71
2024/02/25 09:31:20;;;;;;;17.52;7.78;;;;;;;;;;5953980;24;20011;-70
2024/02/25 09:33:46;;;;;;;15.85;9.32;;;;;;;;;;5979410;24;20008;-71
2024/02/25 09:36:11;;;;;;;17.80;8.87;;;;;;;;;;5954393;24;20028;-71
2024/02/25 09:38:38;;;;;;;13.88;7.70;;;;;;;;;;5979213;24;20432;-70
2024/02/25 09:41:04;;;;;;;16.83;8.43;;;;;;;;;;5954200;24;20028;-74
2024/02/25 09:43:30;;;;;;;14.20;7.95;;;;;;;;;;5954030;24;20035;-70
2024/02/25 09:45:59;;;;;;;17.17;8.05;;;;;;;;;;5954330;24;20008;-71
2024/02/25 09:48:24;;;;;;;14.63;9.02;;;;;;;;;;5953778;24;20223;-71
2024/02/25 09:50:51;;;;;;;15.27;9.00;;;;;;;;;;5954164;24;20480;-72
2024/02/25 09:53:19;;;;;;;14.73;8.35;;;;;;;;;;5953992;23;20034;-70
2024/02/25 09:55:44;;;;;;;14.18;8.13;;;;;;;;;;5954062;24;20008;-70
2024/02/25 09:58:10;;;;;;;13.52;8.60;;;;;;;;;;5953795;24;20027;-68
2024/02/25 10:00:36;;;;;;;16.47;9.10;;;;;;;;;;5953853;24;20368;-71
2024/02/25 10:03:04;;;;;;;14.93;8.35;;;;;;;;;;5954059;24;20008;-70
2024/02/25 10:05:30;;;;;;;17.00;9.55;;;;;;;;;;5979129;24;20508;-71
2024/02/25 10:08:11;;;;;;;21.08;9.80;;;;;;;;;;5954240;24;20008;-71
2024/02/25 10:10:40;;;;;;;15.73;8.95;;;;;;;;;;5932785;24;20421;-71
2024/02/25 10:13:05;;;;;;;23.00;10.38;;;;;;;;;;5954682;24;20072;-72
2024/02/25 10:15:32;;;;;;;17.65;9.15;;;;;;;;;;5954391;24;20011;-70
2024/02/25 10:17:57;;;;;;;13.70;8.27;;;;;;;;;;5954484;24;20004;-70
2024/02/25 10:20:25;;;;;;;17.98;10.43;;;;;;;;;;5953734;24;20034;-69
2024/02/25 10:23:07;;;;;;;18.10;9.73;;;;;;;;;;5978710;24;20008;-70
2024/02/25 10:25:33;;;;;;;14.45;7.57;;;;;;;;;;5978640;24;20040;-68
2024/02/25 10:28:16;;;;;;;18.70;10.25;;;;;;;;;;5978984;24;20334;-69
2024/02/25 10:30:58;;;;;;;25.83;14.27;;;;;;;;;;5953852;24;20008;-71
2024/02/25 10:33:23;;;;;;;16.60;8.00;;;;;;;;;;5978819;24;20004;-70
2024/02/25 10:35:49;;;;;;;15.60;8.55;;;;;;;;;;5978923;24;20004;-69
2024/02/25 10:38:19;;;;;;;15.60;9.02;;;;;;;;;;5978442;24;20067;-70
2024/02/25 10:40:45;;;;;;;15.00;8.48;;;;;;;;;;5953881;24;20012;-69
2024/02/25 10:43:13;;;;;;;17.77;8.85;;;;;;;;;;5954179;24;20032;-70
2024/02/25 10:45:44;;;;;;;13.00;8.00;;;;;;;;;;5983060;24;20205;-70
2024/02/25 10:48:14;;;;;;;16.13;9.35;;;;;;;;;;5983253;24;20315;-71
2024/02/25 10:50:41;;;;;;;21.27;10.48;;;;;;;;;;5956232;24;20338;-70
2024/02/25 10:53:12;;;;;;;17.73;10.30;;;;;;;;;;5980312;23;20020;-70
2024/02/25 10:55:39;;;;;;;18.53;10.20;;;;;;;;;;5930592;24;20012;-71
2024/02/25 10:58:06;;;;;;;17.85;9.73;;;;;;;;;;5953753;24;20019;-71
2024/02/25 11:00:32;;;;;;;14.13;8.80;;;;;;;;;;5953080;24;20022;-70
2024/02/25 11:03:00;;;;;;;13.77;8.27;;;;;;;;;;5953709;24;20343;-71
2024/02/25 11:05:28;;;;;;;14.05;9.10;;;;;;;;;;5953201;24;20015;-71
2024/02/25 11:07:58;;;;;;;16.77;8.50;;;;;;;;;;5953555;24;20004;-70
2024/02/25 11:10:32;;;;;;;12.73;8.38;;;;;;;;;;5953188;24;20012;-71
2024/02/25 11:13:01;;;;;;;13.82;8.27;;;;;;;;;;5953347;24;20012;-71
2024/02/25 11:15:28;;;;;;;14.63;8.55;;;;;;;;;;5953169;24;20123;-70
2024/02/25 11:17:55;;;;;;;13.40;8.00;;;;;;;;;;5978331;24;20079;-70
2024/02/25 11:20:24;;;;;;;15.07;7.95;;;;;;;;;;5953337;24;20012;-71
2024/02/25 11:22:50;;;;;;;13.25;8.07;;;;;;;;;;5954146;24;20426;-70
2024/02/25 11:25:28;;;;;;;17.08;9.00;;;;;;;;;;5977885;24;20008;-69
2024/02/25 11:27:58;;;;;;;13.30;8.10;;;;;;;;;;5953816;24;20008;-71
2024/02/25 11:30:55;;;;;;;13.50;7.30;;;;;;;;;;5953602;24;20012;-71
2024/02/25 11:33:44;;;;;;;16.27;8.48;;;;;;;;;;5936155;24;20018;-70
2024/02/25 11:36:13;;;;;;;11.68;7.75;;;;;;;;;;5977504;24;20143;-71
2024/02/25 11:38:40;;;;;;;12.95;6.97;;;;;;;;;;5978355;24;20469;-71
2024/02/25 11:41:06;;;;;;;13.88;7.50;;;;;;;;;;5977930;24;20049;-71
2024/02/25 11:43:32;;;;;;;11.50;7.78;;;;;;;;;;5953200;24;20012;-70
2024/02/25 11:45:59;;;;;;;14.63;7.55;;;;;;;;;;5978667;24;20055;-69
2024/02/25 11:48:26;;;;;;;13.75;7.80;;;;;;;;;;5930847;24;20422;-70
2024/02/25 11:50:52;;;;;;;15.07;8.27;;;;;;;;;;5953469;24;20049;-71
2024/02/25 11:53:17;;;;;;;20.38;9.63;;;;;;;;;;5953188;24;20076;-71
2024/02/25 11:55:43;;;;;;;19.17;11.30;;;;;;;;;;5978575;24;20031;-70
2024/02/25 11:58:09;;;;;;;12.02;7.78;;;;;;;;;;5978300;24;20008;-69
2024/02/25 12:00:37;;;;;;;12.65;7.53;;;;;;;;;;5977855;24;20028;-71
2024/02/25 12:03:03;;;;;;;11.90;7.22;;;;;;;;;;5980149;24;20013;-70
2024/02/25 12:05:31;;;;;;;16.40;8.75;;;;;;;;;;5955862;24;20004;-71
2024/02/25 12:07:58;;;;;;;15.40;7.93;;;;;;;;;;5956681;24;20008;-69
2024/02/25 12:10:24;;;;;;;15.65;8.90;;;;;;;;;;5956477;24;20018;-70
2024/02/25 12:12:51;;;;;;;16.48;7.97;;;;;;;;;;5982899;24;20331;-71
2024/02/25 12:15:17;;;;;;;10.80;7.20;;;;;;;;;;5958109;24;20043;-70
2024/02/25 12:17:43;;;;;;;12.80;7.72;;;;;;;;;;5957478;24;20060;-71
2024/02/25 12:20:10;;;;;;;15.48;8.57;;;;;;;;;;5960859;24;20057;-73
2024/02/25 12:22:38;;;;;;;14.52;8.95;;;;;;;;;;5981777;24;20008;-71
2024/02/25 12:25:04;;;;;;;12.27;8.18;;;;;;;;;;5956033;24;20068;-70
2024/02/25 12:27:31;;;;;;;19.95;10.93;;;;;;;;;;5956141;24;20030;-69
2024/02/25 12:29:59;;;;;;;11.98;8.23;;;;;;;;;;5932543;24;20422;-70
2024/02/25 12:32:25;;;;;;;17.25;9.77;;;;;;;;;;5979638;24;20413;-71
2024/02/25 12:34:54;;;;;;;11.90;7.95;;;;;;;;;;5954994;24;20103;-70
2024/02/25 12:37:23;;;;;;;12.48;8.45;;;;;;;;;;5979674;24;20031;-71
2024/02/25 12:39:49;;;;;;;14.00;8.07;;;;;;;;;;5979569;24;20008;-68
2024/02/25 12:42:17;;;;;;;15.73;8.90;;;;;;;;;;5954469;24;20066;-71
2024/02/25 12:44:43;;;;;;;14.27;8.73;;;;;;;;;;5954510;24;20028;-70
2024/02/25 12:47:10;;;;;;;12.13;8.13;;;;;;;;;;5954300;24;20346;-69
2024/02/25 12:49:36;;;;;;;11.18;7.57;;;;;;;;;;5979136;23;20448;-71
2024/02/25 12:52:03;;;;;;;13.98;8.38;;;;;;;;;;5979661;23;20032;-70
2024/02/25 12:54:28;;;;;;;12.25;8.00;;;;;;;;;;5954774;24;20506;-70
2024/02/25 12:56:58;;;;;;;12.82;8.07;;;;;;;;;;5954692;24;20012;-70
2024/02/25 12:59:24;;;;;;;10.80;7.60;;;;;;;;;;5954578;24;20008;-71
2024/02/25 13:01:50;;;;;;;13.13;7.72;;;;;;;;;;5954809;24;20012;-71
2024/02/25 13:04:16;;;;;;;16.35;8.15;;;;;;;;;;5979446;24;20083;-70
2024/02/25 13:06:42;;;;;;;16.52;8.55;;;;;;;;;;5954181;24;20068;-70
2024/02/25 13:09:09;;;;;;;11.95;7.60;;;;;;;;;;5979126;24;20379;-70
2024/02/25 13:11:36;;;;;;;13.02;8.30;;;;;;;;;;5953955;24;20009;-71
2024/02/25 13:14:03;;;;;;;10.00;7.75;;;;;;;;;;5954137;24;20012;-71
2024/02/25 13:16:29;;;;;;;10.88;7.75;;;;;;;;;;5953588;24;20358;-71
2024/02/25 13:18:55;;;;;;;10.77;6.97;;;;;;;;;;5979556;24;20014;-71
2024/02/25 13:21:24;;;;;;;12.18;7.40;;;;;;;;;;5978930;24;20099;-71
2024/02/25 13:23:50;;;;;;;11.23;7.68;;;;;;;;;;5954325;24;20008;-70
2024/02/25 13:26:15;;;;;;;11.45;7.47;;;;;;;;;;5954902;24;20015;-70
2024/02/25 13:28:43;;;;;;;10.77;7.28;;;;;;;;;;5954034;24;20008;-71
2024/02/25 13:31:08;;;;;;;11.77;7.88;;;;;;;;;;5979442;24;20011;-71
2024/02/25 13:33:34;;;;;;;12.55;7.25;;;;;;;;;;5954328;24;20015;-70
2024/02/25 13:36:00;;;;;;;9.43;7.15;;;;;;;;;;5954500;24;20334;-70
2024/02/25 13:38:26;;;;;;;12.00;8.05;;;;;;;;;;5978728;24;20068;-72
2024/02/25 13:40:52;;;;;;;13.65;7.90;;;;;;;;;;5954415;24;20016;-73
2024/02/25 13:43:18;;;;;;;11.48;7.38;;;;;;;;;;5979134;24;20095;-71
2024/02/25 13:45:50;;;;;;;19.23;9.50;;;;;;;;;;5954346;24;20012;-72
2024/02/25 13:48:17;;;;;;;13.55;8.80;;;;;;;;;;5979037;24;20062;-70
2024/02/25 13:50:42;;;;;;;15.43;8.63;;;;;;;;;;5978219;23;20341;-71
2024/02/25 13:53:11;;;;;;;13.05;8.07;;;;;;;;;;5953668;24;20027;-69
2024/02/25 13:55:37;;;;;;;13.00;7.72;;;;;;;;;;5978223;24;20008;-71
2024/02/25 13:58:04;;;;;;;11.15;7.43;;;;;;;;;;5978826;24;20012;-71
2024/02/25 14:00:29;;;;;;;11.45;7.72;;;;;;;;;;5953607;24;20383;-72
2024/02/25 14:02:54;;;;;;;14.75;7.93;;;;;;;;;;5954220;24;20003;-70
2024/02/25 14:05:20;;;;;;;14.23;8.23;;;;;;;;;;5954025;24;20012;-71
2024/02/25 14:07:47;;;;;;;15.10;9.20;;;;;;;;;;5953702;24;20046;-70
2024/02/25 14:10:16;;;;;;;11.88;7.38;;;;;;;;;;5978559;24;20010;-70
2024/02/25 14:12:43;;;;;;;11.27;8.00;;;;;;;;;;5978080;24;20001;-70
2024/02/25 14:15:08;;;;;;;14.50;8.43;;;;;;;;;;5978798;24;20008;-71
2024/02/25 14:17:35;;;;;;;11.38;7.80;;;;;;;;;;5978373;24;20042;-70
2024/02/25 14:20:00;;;;;;;13.30;8.02;;;;;;;;;;5977953;24;20449;-70
2024/02/25 14:22:26;;;;;;;11.93;7.80;;;;;;;;;;5953135;24;20012;-71